sensor_id;sensor_type;location;lat;lon;timestamp;P1;durP1;ratioP1;P2;durP2;ratioP2
40433;SDS011;26146;51.114;5.654;2022-12-17T00:02:38;74.10;;;23.50;;
40433;SDS011;26146;51.114;5.654;2022-12-17T00:06:58;84.83;;;24.13;;
40433;SDS011;26146;51.114;5.654;2022-12-17T00:11:18;117.50;;;25.00;;
40433;SDS011;26146;51.114;5.654;2022-12-17T00:15:37;88.07;;;24.10;;
40433;SDS011;26146;51.114;5.654;2022-12-17T00:19:57;76.00;;;23.27;;
40433;SDS011;26146;51.114;5.654;2022-12-17T00:24:16;67.87;;;22.37;;
40433;SDS011;26146;51.114;5.654;2022-12-17T00:28:36;108.77;;;23.30;;
40433;SDS011;26146;51.114;5.654;2022-12-17T00:32:56;80.73;;;23.13;;
40433;SDS011;26146;51.114;5.654;2022-12-17T00:37:16;90.90;;;22.60;;
40433;SDS011;26146;51.114;5.654;2022-12-17T00:41:36;71.23;;;23.40;;
40433;SDS011;26146;51.114;5.654;2022-12-17T00:45:56;69.27;;;22.23;;
40433;SDS011;26146;51.114;5.654;2022-12-17T00:50:16;85.43;;;23.63;;
40433;SDS011;26146;51.114;5.654;2022-12-17T00:54:36;77.53;;;21.77;;
40433;SDS011;26146;51.114;5.654;2022-12-17T00:58:55;78.17;;;22.17;;
40433;SDS011;26146;51.114;5.654;2022-12-17T01:03:15;59.90;;;21.57;;
40433;SDS011;26146;51.114;5.654;2022-12-17T01:07:34;64.60;;;21.60;;
40433;SDS011;26146;51.114;5.654;2022-12-17T01:11:54;70.90;;;22.27;;
40433;SDS011;26146;51.114;5.654;2022-12-17T01:16:13;59.93;;;21.90;;
40433;SDS011;26146;51.114;5.654;2022-12-17T01:20:33;56.93;;;21.83;;
40433;SDS011;26146;51.114;5.654;2022-12-17T01:24:52;54.47;;;20.80;;
40433;SDS011;26146;51.114;5.654;2022-12-17T01:29:12;55.30;;;21.00;;
40433;SDS011;26146;51.114;5.654;2022-12-17T01:33:31;60.00;;;21.43;;
40433;SDS011;26146;51.114;5.654;2022-12-17T01:37:51;55.23;;;21.13;;
40433;SDS011;26146;51.114;5.654;2022-12-17T01:42:11;59.60;;;21.47;;
40433;SDS011;26146;51.114;5.654;2022-12-17T01:46:41;61.23;;;21.93;;
40433;SDS011;26146;51.114;5.654;2022-12-17T01:51:07;58.03;;;21.20;;
40433;SDS011;26146;51.114;5.654;2022-12-17T01:55:26;58.53;;;22.03;;
40433;SDS011;26146;51.114;5.654;2022-12-17T01:59:51;62.33;;;22.20;;
40433;SDS011;26146;51.114;5.654;2022-12-17T02:04:16;56.90;;;21.00;;
40433;SDS011;26146;51.114;5.654;2022-12-17T02:13:22;63.17;;;22.87;;
40433;SDS011;26146;51.114;5.654;2022-12-17T02:17:51;64.70;;;23.60;;
40433;SDS011;26146;51.114;5.654;2022-12-17T02:22:17;64.40;;;22.97;;
40433;SDS011;26146;51.114;5.654;2022-12-17T02:26:51;64.37;;;23.17;;
40433;SDS011;26146;51.114;5.654;2022-12-17T02:31:14;69.23;;;23.20;;
40433;SDS011;26146;51.114;5.654;2022-12-17T02:35:38;64.13;;;22.60;;
40433;SDS011;26146;51.114;5.654;2022-12-17T02:40:07;62.70;;;22.60;;
40433;SDS011;26146;51.114;5.654;2022-12-17T02:44:34;58.73;;;21.47;;
40433;SDS011;26146;51.114;5.654;2022-12-17T02:48:54;63.73;;;21.73;;
40433;SDS011;26146;51.114;5.654;2022-12-17T02:53:14;65.13;;;21.90;;
40433;SDS011;26146;51.114;5.654;2022-12-17T02:57:34;60.53;;;21.30;;
40433;SDS011;26146;51.114;5.654;2022-12-17T03:01:54;65.40;;;22.03;;
40433;SDS011;26146;51.114;5.654;2022-12-17T03:06:13;69.00;;;23.43;;
40433;SDS011;26146;51.114;5.654;2022-12-17T03:10:33;69.17;;;23.47;;
40433;SDS011;26146;51.114;5.654;2022-12-17T03:14:53;68.70;;;24.20;;
40433;SDS011;26146;51.114;5.654;2022-12-17T03:19:12;66.17;;;23.30;;
40433;SDS011;26146;51.114;5.654;2022-12-17T03:23:32;68.60;;;23.57;;
40433;SDS011;26146;51.114;5.654;2022-12-17T03:27:51;67.70;;;23.00;;
40433;SDS011;26146;51.114;5.654;2022-12-17T03:32:10;63.50;;;22.83;;
40433;SDS011;26146;51.114;5.654;2022-12-17T03:36:30;64.23;;;23.77;;
40433;SDS011;26146;51.114;5.654;2022-12-17T03:40:49;65.10;;;23.77;;
40433;SDS011;26146;51.114;5.654;2022-12-17T03:45:09;64.90;;;22.67;;
40433;SDS011;26146;51.114;5.654;2022-12-17T03:49:28;68.50;;;23.60;;
40433;SDS011;26146;51.114;5.654;2022-12-17T03:53:48;67.13;;;23.33;;
40433;SDS011;26146;51.114;5.654;2022-12-17T03:58:07;66.57;;;23.30;;
40433;SDS011;26146;51.114;5.654;2022-12-17T04:02:27;59.90;;;23.33;;
40433;SDS011;26146;51.114;5.654;2022-12-17T04:06:46;63.20;;;23.33;;
40433;SDS011;26146;51.114;5.654;2022-12-17T04:11:06;63.47;;;22.90;;
40433;SDS011;26146;51.114;5.654;2022-12-17T04:15:26;60.70;;;22.70;;
40433;SDS011;26146;51.114;5.654;2022-12-17T04:19:45;67.53;;;23.93;;
40433;SDS011;26146;51.114;5.654;2022-12-17T04:24:05;66.03;;;23.67;;
40433;SDS011;26146;51.114;5.654;2022-12-17T04:28:24;64.30;;;22.33;;
40433;SDS011;26146;51.114;5.654;2022-12-17T04:32:44;67.13;;;23.33;;
40433;SDS011;26146;51.114;5.654;2022-12-17T04:37:03;67.43;;;23.00;;
40433;SDS011;26146;51.114;5.654;2022-12-17T04:41:23;62.10;;;22.50;;
40433;SDS011;26146;51.114;5.654;2022-12-17T04:45:42;59.57;;;21.53;;
40433;SDS011;26146;51.114;5.654;2022-12-17T04:50:02;64.53;;;22.77;;
40433;SDS011;26146;51.114;5.654;2022-12-17T04:54:22;70.43;;;23.97;;
40433;SDS011;26146;51.114;5.654;2022-12-17T04:58:41;61.53;;;22.57;;
40433;SDS011;26146;51.114;5.654;2022-12-17T05:03:19;66.33;;;23.20;;
40433;SDS011;26146;51.114;5.654;2022-12-17T05:07:38;62.73;;;22.97;;
40433;SDS011;26146;51.114;5.654;2022-12-17T05:11:57;62.27;;;22.10;;
40433;SDS011;26146;51.114;5.654;2022-12-17T05:16:17;60.17;;;22.27;;
40433;SDS011;26146;51.114;5.654;2022-12-17T05:20:36;66.60;;;23.50;;
40433;SDS011;26146;51.114;5.654;2022-12-17T05:24:56;63.53;;;22.50;;
40433;SDS011;26146;51.114;5.654;2022-12-17T05:29:15;59.63;;;22.40;;
40433;SDS011;26146;51.114;5.654;2022-12-17T05:33:35;60.47;;;23.13;;
40433;SDS011;26146;51.114;5.654;2022-12-17T05:37:56;62.57;;;22.37;;
40433;SDS011;26146;51.114;5.654;2022-12-17T05:42:21;63.93;;;23.40;;
40433;SDS011;26146;51.114;5.654;2022-12-17T05:46:40;66.77;;;22.43;;
40433;SDS011;26146;51.114;5.654;2022-12-17T05:51:00;65.07;;;22.67;;
40433;SDS011;26146;51.114;5.654;2022-12-17T05:55:19;64.13;;;23.33;;
40433;SDS011;26146;51.114;5.654;2022-12-17T05:59:39;62.13;;;23.17;;
40433;SDS011;26146;51.114;5.654;2022-12-17T06:03:59;65.67;;;24.07;;
40433;SDS011;26146;51.114;5.654;2022-12-17T06:08:18;63.20;;;23.10;;
40433;SDS011;26146;51.114;5.654;2022-12-17T06:12:38;63.97;;;24.67;;
40433;SDS011;26146;51.114;5.654;2022-12-17T06:16:58;61.03;;;22.70;;
40433;SDS011;26146;51.114;5.654;2022-12-17T06:21:17;59.63;;;23.03;;
40433;SDS011;26146;51.114;5.654;2022-12-17T06:25:37;72.73;;;25.90;;
40433;SDS011;26146;51.114;5.654;2022-12-17T06:29:56;67.30;;;25.13;;
40433;SDS011;26146;51.114;5.654;2022-12-17T06:34:16;67.17;;;26.00;;
40433;SDS011;26146;51.114;5.654;2022-12-17T06:38:36;63.00;;;24.53;;
40433;SDS011;26146;51.114;5.654;2022-12-17T06:42:56;76.03;;;28.10;;
40433;SDS011;26146;51.114;5.654;2022-12-17T06:47:15;64.40;;;23.43;;
40433;SDS011;26146;51.114;5.654;2022-12-17T06:51:35;65.50;;;24.73;;
40433;SDS011;26146;51.114;5.654;2022-12-17T06:55:57;68.37;;;24.13;;
40433;SDS011;26146;51.114;5.654;2022-12-17T07:00:17;63.33;;;24.00;;
40433;SDS011;26146;51.114;5.654;2022-12-17T07:04:37;73.03;;;27.87;;
40433;SDS011;26146;51.114;5.654;2022-12-17T07:08:57;69.93;;;24.03;;
40433;SDS011;26146;51.114;5.654;2022-12-17T07:13:16;66.90;;;26.03;;
40433;SDS011;26146;51.114;5.654;2022-12-17T07:17:36;70.07;;;25.33;;
40433;SDS011;26146;51.114;5.654;2022-12-17T07:21:56;64.70;;;22.97;;
40433;SDS011;26146;51.114;5.654;2022-12-17T07:26:15;63.70;;;23.03;;
40433;SDS011;26146;51.114;5.654;2022-12-17T07:30:35;76.40;;;27.00;;
40433;SDS011;26146;51.114;5.654;2022-12-17T07:34:55;63.40;;;24.03;;
40433;SDS011;26146;51.114;5.654;2022-12-17T07:39:17;82.70;;;30.40;;
40433;SDS011;26146;51.114;5.654;2022-12-17T07:43:36;72.00;;;25.97;;
40433;SDS011;26146;51.114;5.654;2022-12-17T07:47:56;66.20;;;23.83;;
40433;SDS011;26146;51.114;5.654;2022-12-17T07:52:15;65.60;;;23.00;;
40433;SDS011;26146;51.114;5.654;2022-12-17T07:56:35;63.17;;;22.00;;
40433;SDS011;26146;51.114;5.654;2022-12-17T08:01:00;71.43;;;23.57;;
40433;SDS011;26146;51.114;5.654;2022-12-17T08:05:19;69.10;;;24.77;;
40433;SDS011;26146;51.114;5.654;2022-12-17T08:09:38;65.53;;;22.37;;
40433;SDS011;26146;51.114;5.654;2022-12-17T08:13:58;67.70;;;22.73;;
40433;SDS011;26146;51.114;5.654;2022-12-17T08:18:18;67.50;;;22.97;;
40433;SDS011;26146;51.114;5.654;2022-12-17T08:22:37;62.93;;;23.00;;
40433;SDS011;26146;51.114;5.654;2022-12-17T08:26:57;69.40;;;23.43;;
40433;SDS011;26146;51.114;5.654;2022-12-17T08:31:16;66.97;;;23.83;;
40433;SDS011;26146;51.114;5.654;2022-12-17T08:35:35;64.43;;;22.73;;
40433;SDS011;26146;51.114;5.654;2022-12-17T08:39:55;61.07;;;21.00;;
40433;SDS011;26146;51.114;5.654;2022-12-17T08:44:14;72.87;;;26.03;;
40433;SDS011;26146;51.114;5.654;2022-12-17T08:48:34;74.97;;;26.60;;
40433;SDS011;26146;51.114;5.654;2022-12-17T08:52:58;65.03;;;21.93;;
40433;SDS011;26146;51.114;5.654;2022-12-17T08:57:18;59.90;;;20.33;;
40433;SDS011;26146;51.114;5.654;2022-12-17T09:01:38;61.87;;;20.97;;
40433;SDS011;26146;51.114;5.654;2022-12-17T09:05:57;66.77;;;21.23;;
40433;SDS011;26146;51.114;5.654;2022-12-17T09:10:17;57.73;;;20.17;;
40433;SDS011;26146;51.114;5.654;2022-12-17T09:14:36;62.07;;;21.07;;
40433;SDS011;26146;51.114;5.654;2022-12-17T09:18:55;63.93;;;21.53;;
40433;SDS011;26146;51.114;5.654;2022-12-17T09:23:15;65.97;;;22.20;;
40433;SDS011;26146;51.114;5.654;2022-12-17T09:27:35;65.67;;;22.53;;
40433;SDS011;26146;51.114;5.654;2022-12-17T09:31:58;64.43;;;22.13;;
40433;SDS011;26146;51.114;5.654;2022-12-17T09:36:17;62.47;;;20.93;;
40433;SDS011;26146;51.114;5.654;2022-12-17T09:40:37;70.57;;;21.93;;
40433;SDS011;26146;51.114;5.654;2022-12-17T09:45:01;63.03;;;21.20;;
40433;SDS011;26146;51.114;5.654;2022-12-17T09:49:28;61.67;;;20.30;;
40433;SDS011;26146;51.114;5.654;2022-12-17T09:53:51;62.87;;;19.83;;
40433;SDS011;26146;51.114;5.654;2022-12-17T09:58:21;64.07;;;20.43;;
40433;SDS011;26146;51.114;5.654;2022-12-17T10:02:43;59.70;;;19.83;;
40433;SDS011;26146;51.114;5.654;2022-12-17T10:07:05;60.07;;;20.60;;
40433;SDS011;26146;51.114;5.654;2022-12-17T10:11:33;65.03;;;21.13;;
40433;SDS011;26146;51.114;5.654;2022-12-17T10:15:53;67.07;;;20.10;;
40433;SDS011;26146;51.114;5.654;2022-12-17T10:20:20;72.23;;;23.50;;
40433;SDS011;26146;51.114;5.654;2022-12-17T10:24:44;66.47;;;21.77;;
40433;SDS011;26146;51.114;5.654;2022-12-17T10:29:05;70.33;;;23.20;;
40433;SDS011;26146;51.114;5.654;2022-12-17T10:33:37;65.10;;;20.63;;
40433;SDS011;26146;51.114;5.654;2022-12-17T10:38:08;62.97;;;21.83;;
40433;SDS011;26146;51.114;5.654;2022-12-17T10:42:40;68.73;;;22.10;;
40433;SDS011;26146;51.114;5.654;2022-12-17T10:46:59;67.63;;;21.93;;
40433;SDS011;26146;51.114;5.654;2022-12-17T10:51:23;65.00;;;21.33;;
40433;SDS011;26146;51.114;5.654;2022-12-17T10:55:48;70.30;;;21.75;;
40433;SDS011;26146;51.114;5.654;2022-12-17T11:04:49;73.82;;;22.85;;
40433;SDS011;26146;51.114;5.654;2022-12-17T11:09:13;81.77;;;24.03;;
40433;SDS011;26146;51.114;5.654;2022-12-17T11:13:42;78.53;;;21.73;;
40433;SDS011;26146;51.114;5.654;2022-12-17T11:18:04;79.47;;;23.00;;
40433;SDS011;26146;51.114;5.654;2022-12-17T11:27:15;73.60;;;21.50;;
40433;SDS011;26146;51.114;5.654;2022-12-17T11:31:45;64.07;;;19.43;;
40433;SDS011;26146;51.114;5.654;2022-12-17T11:36:16;75.87;;;21.40;;
40433;SDS011;26146;51.114;5.654;2022-12-17T11:40:42;81.23;;;22.27;;
40433;SDS011;26146;51.114;5.654;2022-12-17T11:45:18;74.00;;;21.50;;
40433;SDS011;26146;51.114;5.654;2022-12-17T11:54:35;74.07;;;21.97;;
40433;SDS011;26146;51.114;5.654;2022-12-17T11:59:13;77.33;;;20.67;;
40433;SDS011;26146;51.114;5.654;2022-12-17T12:08:22;76.97;;;21.60;;
40433;SDS011;26146;51.114;5.654;2022-12-17T12:26:40;76.07;;;19.73;;
40433;SDS011;26146;51.114;5.654;2022-12-17T12:31:18;83.77;;;26.30;;
40433;SDS011;26146;51.114;5.654;2022-12-17T12:35:44;82.07;;;22.43;;
40433;SDS011;26146;51.114;5.654;2022-12-17T12:44:54;84.97;;;24.17;;
40433;SDS011;26146;51.114;5.654;2022-12-17T12:49:29;114.23;;;34.17;;
40433;SDS011;26146;51.114;5.654;2022-12-17T12:53:55;81.57;;;23.77;;
40433;SDS011;26146;51.114;5.654;2022-12-17T12:58:29;85.43;;;26.87;;
40433;SDS011;26146;51.114;5.654;2022-12-17T13:02:50;87.50;;;23.00;;
40433;SDS011;26146;51.114;5.654;2022-12-17T13:07:22;82.57;;;22.80;;
40433;SDS011;26146;51.114;5.654;2022-12-17T13:11:28;81.73;;;21.47;;
40433;SDS011;26146;51.114;5.654;2022-12-17T13:15:36;77.23;;;21.03;;
40433;SDS011;26146;51.114;5.654;2022-12-17T13:23:56;80.40;;;21.87;;
40433;SDS011;26146;51.114;5.654;2022-12-17T13:28:00;85.33;;;23.30;;
40433;SDS011;26146;51.114;5.654;2022-12-17T13:44:23;80.20;;;22.27;;
40433;SDS011;26146;51.114;5.654;2022-12-17T13:48:28;78.90;;;21.30;;
40433;SDS011;26146;51.114;5.654;2022-12-17T13:52:34;74.27;;;20.43;;
40433;SDS011;26146;51.114;5.654;2022-12-17T13:56:35;77.47;;;20.80;;
40433;SDS011;26146;51.114;5.654;2022-12-17T14:00:37;73.07;;;19.83;;
40433;SDS011;26146;51.114;5.654;2022-12-17T14:04:38;78.43;;;20.57;;
40433;SDS011;26146;51.114;5.654;2022-12-17T14:08:40;78.53;;;22.67;;
40433;SDS011;26146;51.114;5.654;2022-12-17T14:12:41;77.33;;;22.20;;
40433;SDS011;26146;51.114;5.654;2022-12-17T14:16:45;81.80;;;21.97;;
40433;SDS011;26146;51.114;5.654;2022-12-17T14:20:46;77.80;;;21.33;;
40433;SDS011;26146;51.114;5.654;2022-12-17T14:24:50;76.17;;;22.17;;
40433;SDS011;26146;51.114;5.654;2022-12-17T14:28:52;67.00;;;19.87;;
40433;SDS011;26146;51.114;5.654;2022-12-17T14:32:54;71.97;;;20.10;;
40433;SDS011;26146;51.114;5.654;2022-12-17T14:36:56;59.43;;;18.60;;
40433;SDS011;26146;51.114;5.654;2022-12-17T14:41:02;63.30;;;21.13;;
40433;SDS011;26146;51.114;5.654;2022-12-17T14:45:29;69.97;;;20.70;;
40433;SDS011;26146;51.114;5.654;2022-12-17T14:54:05;66.83;;;19.80;;
40433;SDS011;26146;51.114;5.654;2022-12-17T14:58:19;66.30;;;19.97;;
40433;SDS011;26146;51.114;5.654;2022-12-17T15:02:22;62.33;;;17.87;;
40433;SDS011;26146;51.114;5.654;2022-12-17T15:06:29;68.97;;;18.87;;
40433;SDS011;26146;51.114;5.654;2022-12-17T15:10:30;68.20;;;18.67;;
40433;SDS011;26146;51.114;5.654;2022-12-17T15:14:31;72.30;;;19.20;;
40433;SDS011;26146;51.114;5.654;2022-12-17T15:18:32;70.47;;;20.37;;
40433;SDS011;26146;51.114;5.654;2022-12-17T15:22:33;68.67;;;19.70;;
40433;SDS011;26146;51.114;5.654;2022-12-17T15:26:36;72.63;;;20.10;;
40433;SDS011;26146;51.114;5.654;2022-12-17T15:30:39;66.93;;;19.80;;
40433;SDS011;26146;51.114;5.654;2022-12-17T15:34:40;73.27;;;20.27;;
40433;SDS011;26146;51.114;5.654;2022-12-17T15:38:41;70.20;;;19.73;;
40433;SDS011;26146;51.114;5.654;2022-12-17T15:42:42;68.13;;;20.10;;
40433;SDS011;26146;51.114;5.654;2022-12-17T15:47:02;65.33;;;20.63;;
40433;SDS011;26146;51.114;5.654;2022-12-17T15:51:03;72.40;;;20.80;;
40433;SDS011;26146;51.114;5.654;2022-12-17T15:55:04;67.50;;;20.50;;
40433;SDS011;26146;51.114;5.654;2022-12-17T15:59:05;68.90;;;20.17;;
40433;SDS011;26146;51.114;5.654;2022-12-17T16:03:06;69.03;;;21.20;;
40433;SDS011;26146;51.114;5.654;2022-12-17T16:07:07;67.93;;;20.17;;
40433;SDS011;26146;51.114;5.654;2022-12-17T16:11:09;67.53;;;21.90;;
40433;SDS011;26146;51.114;5.654;2022-12-17T16:15:12;73.27;;;24.37;;
40433;SDS011;26146;51.114;5.654;2022-12-17T16:19:27;80.97;;;26.37;;
40433;SDS011;26146;51.114;5.654;2022-12-17T16:23:29;72.17;;;19.87;;
40433;SDS011;26146;51.114;5.654;2022-12-17T16:27:30;67.47;;;23.77;;
40433;SDS011;26146;51.114;5.654;2022-12-17T16:31:31;73.10;;;20.17;;
40433;SDS011;26146;51.114;5.654;2022-12-17T16:35:32;80.47;;;29.97;;
40433;SDS011;26146;51.114;5.654;2022-12-17T16:39:33;72.93;;;20.77;;
40433;SDS011;26146;51.114;5.654;2022-12-17T16:43:34;81.97;;;22.27;;
40433;SDS011;26146;51.114;5.654;2022-12-17T16:47:35;66.97;;;19.80;;
40433;SDS011;26146;51.114;5.654;2022-12-17T16:52:15;81.60;;;25.27;;
40433;SDS011;26146;51.114;5.654;2022-12-17T16:56:17;81.13;;;22.13;;
40433;SDS011;26146;51.114;5.654;2022-12-17T17:00:20;77.67;;;20.93;;
40433;SDS011;26146;51.114;5.654;2022-12-17T17:04:21;83.47;;;21.90;;
40433;SDS011;26146;51.114;5.654;2022-12-17T17:08:22;80.80;;;18.53;;
40433;SDS011;26146;51.114;5.654;2022-12-17T17:12:23;68.30;;;18.97;;
40433;SDS011;26146;51.114;5.654;2022-12-17T17:16:26;72.60;;;19.13;;
40433;SDS011;26146;51.114;5.654;2022-12-17T17:20:27;75.07;;;19.77;;
40433;SDS011;26146;51.114;5.654;2022-12-17T17:24:31;68.20;;;19.30;;
40433;SDS011;26146;51.114;5.654;2022-12-17T17:28:32;61.00;;;18.60;;
40433;SDS011;26146;51.114;5.654;2022-12-17T17:32:33;67.00;;;19.00;;
40433;SDS011;26146;51.114;5.654;2022-12-17T17:36:34;70.77;;;18.83;;
40433;SDS011;26146;51.114;5.654;2022-12-17T17:40:35;66.90;;;18.17;;
40433;SDS011;26146;51.114;5.654;2022-12-17T17:44:36;71.20;;;19.07;;
40433;SDS011;26146;51.114;5.654;2022-12-17T17:48:37;73.43;;;19.00;;
40433;SDS011;26146;51.114;5.654;2022-12-17T17:52:39;60.73;;;18.30;;
40433;SDS011;26146;51.114;5.654;2022-12-17T17:56:40;61.97;;;18.07;;
40433;SDS011;26146;51.114;5.654;2022-12-17T18:00:42;74.57;;;20.73;;
40433;SDS011;26146;51.114;5.654;2022-12-17T18:04:43;84.60;;;23.67;;
40433;SDS011;26146;51.114;5.654;2022-12-17T18:13:14;64.17;;;20.07;;
40433;SDS011;26146;51.114;5.654;2022-12-17T18:17:34;73.03;;;20.10;;
40433;SDS011;26146;51.114;5.654;2022-12-17T18:21:35;64.83;;;19.20;;
40433;SDS011;26146;51.114;5.654;2022-12-17T18:25:36;78.13;;;20.20;;
40433;SDS011;26146;51.114;5.654;2022-12-17T18:29:37;73.60;;;20.20;;
40433;SDS011;26146;51.114;5.654;2022-12-17T18:33:40;81.50;;;22.60;;
40433;SDS011;26146;51.114;5.654;2022-12-17T18:37:42;71.70;;;22.13;;
40433;SDS011;26146;51.114;5.654;2022-12-17T18:41:43;92.97;;;20.07;;
40433;SDS011;26146;51.114;5.654;2022-12-17T18:46:03;71.43;;;20.07;;
40433;SDS011;26146;51.114;5.654;2022-12-17T18:50:05;87.53;;;21.80;;
40433;SDS011;26146;51.114;5.654;2022-12-17T18:54:06;74.43;;;20.93;;
40433;SDS011;26146;51.114;5.654;2022-12-17T18:58:11;75.33;;;19.00;;
40433;SDS011;26146;51.114;5.654;2022-12-17T19:02:13;75.30;;;18.37;;
40433;SDS011;26146;51.114;5.654;2022-12-17T19:06:18;70.85;;;20.30;;
40433;SDS011;26146;51.114;5.654;2022-12-17T19:10:20;69.23;;;17.47;;
40433;SDS011;26146;51.114;5.654;2022-12-17T19:14:28;67.50;;;18.33;;
40433;SDS011;26146;51.114;5.654;2022-12-17T19:18:29;89.60;;;17.57;;
40433;SDS011;26146;51.114;5.654;2022-12-17T19:22:30;54.13;;;17.10;;
40433;SDS011;26146;51.114;5.654;2022-12-17T19:26:31;96.33;;;18.00;;
40433;SDS011;26146;51.114;5.654;2022-12-17T19:30:33;91.40;;;18.50;;
40433;SDS011;26146;51.114;5.654;2022-12-17T19:34:34;79.13;;;17.60;;
40433;SDS011;26146;51.114;5.654;2022-12-17T19:38:35;50.83;;;16.40;;
40433;SDS011;26146;51.114;5.654;2022-12-17T19:42:36;80.80;;;17.93;;
40433;SDS011;26146;51.114;5.654;2022-12-17T19:46:37;68.57;;;17.47;;
40433;SDS011;26146;51.114;5.654;2022-12-17T19:50:38;67.60;;;18.40;;
40433;SDS011;26146;51.114;5.654;2022-12-17T19:54:40;73.67;;;20.00;;
40433;SDS011;26146;51.114;5.654;2022-12-17T19:58:42;80.70;;;21.50;;
40433;SDS011;26146;51.114;5.654;2022-12-17T20:02:44;69.07;;;18.60;;
40433;SDS011;26146;51.114;5.654;2022-12-17T20:06:45;51.77;;;16.50;;
40433;SDS011;26146;51.114;5.654;2022-12-17T20:10:46;53.90;;;16.43;;
40433;SDS011;26146;51.114;5.654;2022-12-17T20:14:47;67.43;;;17.67;;
40433;SDS011;26146;51.114;5.654;2022-12-17T20:18:48;73.10;;;16.80;;
40433;SDS011;26146;51.114;5.654;2022-12-17T20:22:50;62.30;;;17.83;;
40433;SDS011;26146;51.114;5.654;2022-12-17T20:26:51;52.10;;;16.43;;
40433;SDS011;26146;51.114;5.654;2022-12-17T20:30:53;54.67;;;16.13;;
40433;SDS011;26146;51.114;5.654;2022-12-17T20:34:54;65.57;;;16.27;;
40433;SDS011;26146;51.114;5.654;2022-12-17T20:38:55;59.70;;;17.47;;
40433;SDS011;26146;51.114;5.654;2022-12-17T20:42:56;58.67;;;17.07;;
40433;SDS011;26146;51.114;5.654;2022-12-17T20:46:57;57.00;;;17.80;;
40433;SDS011;26146;51.114;5.654;2022-12-17T20:51:00;53.33;;;17.57;;
40433;SDS011;26146;51.114;5.654;2022-12-17T20:55:07;62.23;;;17.40;;
40433;SDS011;26146;51.114;5.654;2022-12-17T20:59:10;53.73;;;16.93;;
40433;SDS011;26146;51.114;5.654;2022-12-17T21:03:14;54.13;;;18.43;;
40433;SDS011;26146;51.114;5.654;2022-12-17T21:07:15;62.93;;;18.33;;
40433;SDS011;26146;51.114;5.654;2022-12-17T21:11:17;66.50;;;19.97;;
40433;SDS011;26146;51.114;5.654;2022-12-17T21:15:19;63.67;;;18.47;;
40433;SDS011;26146;51.114;5.654;2022-12-17T21:19:20;52.50;;;17.30;;
40433;SDS011;26146;51.114;5.654;2022-12-17T21:23:22;65.73;;;18.17;;
40433;SDS011;26146;51.114;5.654;2022-12-17T21:27:23;52.50;;;16.67;;
40433;SDS011;26146;51.114;5.654;2022-12-17T21:35:30;53.28;;;17.13;;
40433;SDS011;26146;51.114;5.654;2022-12-17T21:39:31;61.40;;;17.37;;
40433;SDS011;26146;51.114;5.654;2022-12-17T21:43:32;61.93;;;17.87;;
40433;SDS011;26146;51.114;5.654;2022-12-17T21:47:34;54.53;;;17.67;;
40433;SDS011;26146;51.114;5.654;2022-12-17T21:51:35;47.83;;;16.77;;
40433;SDS011;26146;51.114;5.654;2022-12-17T21:55:36;47.43;;;17.00;;
40433;SDS011;26146;51.114;5.654;2022-12-17T21:59:37;48.17;;;17.37;;
40433;SDS011;26146;51.114;5.654;2022-12-17T22:03:38;54.57;;;20.17;;
40433;SDS011;26146;51.114;5.654;2022-12-17T22:07:39;70.17;;;24.50;;
40433;SDS011;26146;51.114;5.654;2022-12-17T22:11:40;70.97;;;24.33;;
40433;SDS011;26146;51.114;5.654;2022-12-17T22:15:41;64.00;;;23.87;;
40433;SDS011;26146;51.114;5.654;2022-12-17T22:19:42;69.33;;;23.40;;
40433;SDS011;26146;51.114;5.654;2022-12-17T22:23:45;64.33;;;21.27;;
40433;SDS011;26146;51.114;5.654;2022-12-17T22:27:47;66.50;;;22.10;;
40433;SDS011;26146;51.114;5.654;2022-12-17T22:31:48;58.83;;;20.30;;
40433;SDS011;26146;51.114;5.654;2022-12-17T22:36:08;58.33;;;19.80;;
40433;SDS011;26146;51.114;5.654;2022-12-17T22:40:09;56.33;;;20.63;;
40433;SDS011;26146;51.114;5.654;2022-12-17T22:44:11;51.60;;;18.03;;
40433;SDS011;26146;51.114;5.654;2022-12-17T22:48:12;47.33;;;16.53;;
40433;SDS011;26146;51.114;5.654;2022-12-17T22:52:14;48.77;;;17.13;;
40433;SDS011;26146;51.114;5.654;2022-12-17T22:56:15;48.20;;;16.77;;
40433;SDS011;26146;51.114;5.654;2022-12-17T23:00:19;49.57;;;16.13;;
40433;SDS011;26146;51.114;5.654;2022-12-17T23:04:22;49.83;;;17.20;;
40433;SDS011;26146;51.114;5.654;2022-12-17T23:08:23;48.53;;;16.63;;
40433;SDS011;26146;51.114;5.654;2022-12-17T23:12:24;44.87;;;16.50;;
40433;SDS011;26146;51.114;5.654;2022-12-17T23:16:44;45.07;;;15.37;;
40433;SDS011;26146;51.114;5.654;2022-12-17T23:20:45;48.20;;;15.67;;
40433;SDS011;26146;51.114;5.654;2022-12-17T23:24:47;47.70;;;15.57;;
40433;SDS011;26146;51.114;5.654;2022-12-17T23:28:51;48.00;;;16.00;;
40433;SDS011;26146;51.114;5.654;2022-12-17T23:32:53;45.10;;;16.38;;
40433;SDS011;26146;51.114;5.654;2022-12-17T23:36:54;48.57;;;15.90;;
40433;SDS011;26146;51.114;5.654;2022-12-17T23:41:00;48.13;;;16.87;;
40433;SDS011;26146;51.114;5.654;2022-12-17T23:45:05;51.40;;;17.57;;
40433;SDS011;26146;51.114;5.654;2022-12-17T23:49:07;51.47;;;17.30;;
40433;SDS011;26146;51.114;5.654;2022-12-17T23:53:09;48.50;;;17.10;;
40433;SDS011;26146;51.114;5.654;2022-12-17T23:57:10;50.50;;;17.93;;
